Portada
METAR-TAF:

METAR-TAF

Aeroports :

Aeroport de Casablanca

Casablanca, Marroc

latitud: 33-34N, longitud: 007-40W, altitud: 62 m

Observació

L'informe es va fer fa 39 minuts, a les 11:00 UTC
Vent 8 kt del Nord-Est
Temperatura 25°C
Humitat 65%
Pressió 1015 hPa
Visibilitat 10 km o més
sense núvols per sota de 1500 mi sense presència de cumulonimbus.

METAR: GMMC 171100Z 04008KT CAVOK 25/18 Q1015 NOSIG

Hora: 12:39 (11:39 UTC)


TAF: manca

Observacions i pronòstics meteorològics de més de 4000 aeroports (METAR i TAF).

Les estacions disponibles són els punts grocs i vermells al mapa.

Posi el ratolí al punt desitjat per veure el nom de l'estació.

Feu clic per veure les observacions i els pronòstics meteorològics.

Per canviar el mapa: feu clic els botons verds amb una creu de color negre per apropar; al botó verd amb un guió per allunyar la imatge; o en les fletxes verdes per a mapes adjacents.


METAR-TAF: